createdAt,value
2022-11-23T00:00:54.819Z,29.4286
2022-11-23T00:01:54.866Z,30.6429
2022-11-23T00:02:54.875Z,29.2143
2022-11-23T00:03:54.908Z,28.6429
2022-11-23T00:04:54.927Z,29.1429
2022-11-23T00:05:54.966Z,30.7143
2022-11-23T00:06:54.997Z,28.1429
2022-11-23T00:07:55.027Z,30.4286
2022-11-23T00:08:55.059Z,29.8571
2022-11-23T00:09:55.091Z,29.3571
2022-11-23T00:10:55.115Z,29.2143
2022-11-23T00:11:55.141Z,30.3571
2022-11-23T00:12:55.172Z,29
2022-11-23T00:13:55.210Z,29.5
2022-11-23T00:14:55.231Z,30
2022-11-23T00:15:55.264Z,30
2022-11-23T00:17:59.341Z,27.6429
2022-11-23T00:18:55.369Z,28
2022-11-23T00:19:55.445Z,29
2022-11-23T00:20:55.425Z,29.7143
2022-11-23T00:21:55.459Z,28.1429
2022-11-23T00:22:55.491Z,29.3571
2022-11-23T00:23:55.519Z,29.5
2022-11-23T00:24:55.593Z,28.6429
2022-11-23T00:25:55.577Z,30.2143
2022-11-23T00:26:55.606Z,28.6429
2022-11-23T00:27:55.644Z,29.2143
2022-11-23T00:28:55.673Z,29.5
2022-11-23T00:29:55.701Z,28.5
2022-11-23T00:30:55.732Z,28.9286
2022-11-23T00:31:55.769Z,30.1429
2022-11-23T00:32:55.793Z,28.6429
2022-11-23T00:33:55.821Z,29.9286
2022-11-23T00:34:55.842Z,28.4286
2022-11-23T00:35:55.870Z,30.3571
2022-11-23T00:36:55.904Z,29.7143
2022-11-23T00:37:55.939Z,29.5
2022-11-23T00:38:55.971Z,28.4286
2022-11-23T00:39:56.018Z,29.4286
2022-11-23T00:40:56.037Z,29.4286
2022-11-23T00:41:56.067Z,28.6429
2022-11-23T00:42:56.103Z,28.7143
2022-11-23T00:43:56.135Z,29.2143
2022-11-23T00:44:56.190Z,29.1429
2022-11-23T00:45:56.202Z,28.9286
2022-11-23T00:46:56.233Z,28.5
2022-11-23T00:47:56.262Z,28.6429
2022-11-23T00:48:56.309Z,29.9286
2022-11-23T00:49:56.333Z,28.7143
2022-11-23T00:50:56.355Z,29.9286
2022-11-23T00:51:56.410Z,29
2022-11-23T00:52:56.446Z,29.6429
2022-11-23T00:53:56.470Z,27.4286
2022-11-23T00:54:56.473Z,28.1429
2022-11-23T00:55:56.502Z,27.2143
2022-11-23T00:56:56.540Z,28.7143
2022-11-23T00:57:56.579Z,27.5
2022-11-23T00:58:56.609Z,27.3571
2022-11-23T00:59:56.649Z,26.9286
2022-11-23T01:00:56.677Z,28.2143
2022-11-23T01:01:56.767Z,28.2143
2022-11-23T01:02:56.744Z,28.1429
2022-11-23T01:03:56.778Z,28.9286
2022-11-23T01:04:56.814Z,28.1429
2022-11-23T01:05:56.847Z,27.8571
2022-11-23T01:06:56.876Z,28
2022-11-23T01:07:56.912Z,29.3571
2022-11-23T01:08:56.946Z,27.7143
2022-11-23T01:09:56.988Z,28.3571
2022-11-23T01:10:57.003Z,28.7143
2022-11-23T01:11:57.030Z,27.8571
2022-11-23T01:12:57.060Z,28
2022-11-23T01:13:57.084Z,28.1429
2022-11-23T01:14:57.143Z,28.3571
2022-11-23T01:15:57.156Z,28.8571
2022-11-23T01:16:57.181Z,26.8571
2022-11-23T01:17:57.212Z,27.7143
2022-11-23T01:18:57.237Z,28.4286
2022-11-23T01:19:57.301Z,27.8571
2022-11-23T01:20:57.312Z,28.7143
2022-11-23T01:21:57.338Z,27.5
2022-11-23T01:22:57.369Z,27.8571
2022-11-23T01:23:57.430Z,28.6429
2022-11-23T01:24:57.446Z,28.1429
2022-11-23T01:25:57.470Z,27.2143
2022-11-23T01:26:57.511Z,26.7143
2022-11-23T01:27:57.538Z,27.2143
2022-11-23T01:28:57.565Z,27.6429
2022-11-23T01:29:57.592Z,28.3571
2022-11-23T01:30:57.626Z,28.1429
2022-11-23T01:31:57.662Z,28.3571
2022-11-23T01:32:57.703Z,27.3571
2022-11-23T01:33:57.756Z,28
2022-11-23T01:34:57.763Z,27.2143
2022-11-23T01:35:57.800Z,27.4286
2022-11-23T01:36:57.838Z,26.8571
2022-11-23T01:37:57.857Z,29
2022-11-23T01:38:57.903Z,27.6429
2022-11-23T01:39:57.906Z,27.9286
2022-11-23T01:40:57.940Z,27.6429
2022-11-23T01:41:57.984Z,26.5
2022-11-23T01:42:58.007Z,27.4286
2022-11-23T01:43:58.044Z,26.9286
2022-11-23T01:44:58.073Z,28.5
2022-11-23T01:45:58.097Z,28.5
2022-11-23T01:46:58.130Z,28.6429
2022-11-23T01:47:58.168Z,27.1429
2022-11-23T01:48:58.202Z,26.4286
2022-11-23T01:49:58.257Z,26.4286
2022-11-23T01:50:58.265Z,26.2143
2022-11-23T01:51:58.299Z,27.2143
2022-11-23T01:52:58.329Z,26.9286
2022-11-23T01:53:58.357Z,26.6429
2022-11-23T01:54:59.887Z,26.2143
2022-11-23T01:55:58.417Z,27.3571
2022-11-23T01:56:58.455Z,26.9286
2022-11-23T01:57:58.495Z,25.8571
2022-11-23T01:58:58.531Z,27.8571
2022-11-23T01:59:58.559Z,26.9286
2022-11-23T02:00:58.640Z,26.6429
2022-11-23T02:01:58.611Z,26.3571
2022-11-23T02:02:58.647Z,26.3571
2022-11-23T02:03:58.673Z,26.1429
2022-11-23T02:04:58.710Z,27.6429
2022-11-23T02:05:58.741Z,27.9286
2022-11-23T02:06:58.772Z,27.1429
2022-11-23T02:07:58.809Z,27.4286
2022-11-23T02:08:58.840Z,27.5
2022-11-23T02:09:58.870Z,26.9286
2022-11-23T02:10:58.903Z,26.8571
2022-11-23T02:11:58.945Z,27.4286
2022-11-23T02:12:58.968Z,26
2022-11-23T02:13:58.995Z,27.5
2022-11-23T02:14:59.029Z,26.7143
2022-11-23T02:15:59.084Z,26.5
2022-11-23T02:16:59.087Z,26.3571
2022-11-23T02:17:59.111Z,26.9286
2022-11-23T02:18:59.140Z,28.2143
2022-11-23T02:19:59.189Z,27.7143
2022-11-23T02:20:59.198Z,27.9286
2022-11-23T02:21:59.229Z,27.5
2022-11-23T02:22:59.271Z,26.6429
2022-11-23T02:23:59.312Z,25.5
2022-11-23T02:24:59.314Z,24.6429
2022-11-23T02:25:59.350Z,26.1429
2022-11-23T02:26:59.387Z,27.2143
2022-11-23T02:27:59.411Z,26.1429
2022-11-23T02:28:59.441Z,25.5
2022-11-23T02:29:59.475Z,26.2143
2022-11-23T02:30:59.507Z,26.9286
2022-11-23T02:31:59.538Z,25.4286
2022-11-23T02:32:59.592Z,27.2143
2022-11-23T02:33:59.610Z,26.4286
2022-11-23T02:34:59.649Z,27.2143
2022-11-23T02:35:59.692Z,27.7143
2022-11-23T02:36:59.705Z,26.4286
2022-11-23T02:37:59.739Z,25.6429
2022-11-23T02:38:59.767Z,26.3571
2022-11-23T02:39:59.801Z,25.9286
2022-11-23T02:40:59.846Z,27.3571
2022-11-23T02:41:59.854Z,26.5
2022-11-23T02:42:59.870Z,26.3571
2022-11-23T02:43:59.895Z,24.8571
2022-11-23T02:44:59.930Z,26.8571
2022-11-23T02:45:59.955Z,26.8571
2022-11-23T02:47:00.077Z,26.7143
2022-11-23T02:48:00.032Z,25.3571
2022-11-23T02:49:00.040Z,26
2022-11-23T02:50:00.113Z,26.2143
2022-11-23T02:51:00.106Z,25.7143
2022-11-23T02:52:00.157Z,26.7143
2022-11-23T02:53:00.185Z,26
2022-11-23T02:54:00.684Z,25.9286
2022-11-23T02:55:00.250Z,25.2143
2022-11-23T02:56:00.274Z,25.2143
2022-11-23T02:57:00.289Z,25.3571
2022-11-23T02:58:00.322Z,26.1429
2022-11-23T02:59:00.356Z,24.8571
2022-11-23T03:00:00.382Z,24.6429
2022-11-23T03:01:00.472Z,24.2143
2022-11-23T03:02:00.431Z,26.9286
2022-11-23T03:03:00.471Z,26.3571
2022-11-23T03:04:00.495Z,24.3571
2022-11-23T03:05:00.532Z,25.6429
2022-11-23T03:06:00.556Z,26.1429
2022-11-23T03:07:00.587Z,25.2143
2022-11-23T03:08:00.643Z,25.3571
2022-11-23T03:09:00.660Z,25
2022-11-23T03:10:00.696Z,25.9286
2022-11-23T03:11:00.724Z,25.3571
2022-11-23T03:12:00.775Z,24.2143
2022-11-23T03:13:00.791Z,25.4286
2022-11-23T03:14:00.814Z,24.6429
2022-11-23T03:15:00.865Z,26.7143
2022-11-23T03:16:00.876Z,25
2022-11-23T03:17:00.905Z,25.9286
2022-11-23T03:18:00.937Z,25.7143
2022-11-23T03:19:00.959Z,25.2143
2022-11-23T03:20:01.017Z,24.9286
2022-11-23T03:21:01.027Z,25.2143
2022-11-23T03:22:01.062Z,24.3571
2022-11-23T03:23:01.099Z,25.1429
2022-11-23T03:24:01.127Z,24.3571
2022-11-23T03:25:01.188Z,23.5
2022-11-23T03:26:01.193Z,24.3571
2022-11-23T03:27:01.233Z,23.3571
2022-11-23T03:28:01.254Z,23.5
2022-11-23T03:29:01.287Z,23.4286
2022-11-23T03:30:01.343Z,24.2143
2022-11-23T03:31:01.367Z,23
2022-11-23T03:32:01.376Z,24.1429
2022-11-23T03:33:01.408Z,25.7143
2022-11-23T03:34:01.451Z,24
2022-11-23T03:35:01.490Z,25.5
2022-11-23T03:36:01.517Z,24.2143
2022-11-23T03:37:01.585Z,25.4286
2022-11-23T03:38:01.590Z,24.9286
2022-11-23T03:39:01.613Z,25.1429
2022-11-23T03:40:01.652Z,24.2143
2022-11-23T03:41:01.674Z,25.2143
2022-11-23T03:42:01.728Z,23.7143
2022-11-23T03:43:01.749Z,25.1429
2022-11-23T03:44:01.776Z,24.1429
2022-11-23T03:45:01.817Z,25.9286
2022-11-23T03:46:01.871Z,23.5
2022-11-23T03:47:01.875Z,24.7143
2022-11-23T03:48:01.907Z,25.3571
2022-11-23T03:49:01.944Z,24.9286
2022-11-23T03:50:01.973Z,24.5
2022-11-23T03:51:02.021Z,24.4286
2022-11-23T03:52:02.023Z,23.7143
2022-11-23T03:53:02.053Z,23.1429
2022-11-23T03:54:02.110Z,24.9286
2022-11-23T03:55:02.120Z,24.7143
2022-11-23T03:56:02.152Z,24
2022-11-23T03:57:02.194Z,22.9286
2022-11-23T03:58:02.222Z,23.8571
2022-11-23T03:59:02.220Z,23
2022-11-23T04:00:02.251Z,23.2143
2022-11-23T04:01:02.363Z,23.9286
2022-11-23T04:02:02.320Z,23.6429
2022-11-23T04:03:02.373Z,23.2143
2022-11-23T04:04:02.390Z,22.6429
2022-11-23T04:05:02.427Z,23.6429
2022-11-23T04:06:02.471Z,22.5
2022-11-23T04:07:02.500Z,23.9286
2022-11-23T04:08:02.513Z,23.1429
2022-11-23T04:09:02.690Z,23.3571
2022-11-23T04:10:02.561Z,24.4286
2022-11-23T04:11:02.592Z,23.7143
2022-11-23T04:12:02.625Z,23
2022-11-23T04:13:02.660Z,23
2022-11-23T04:14:02.709Z,23.7143
2022-11-23T04:15:02.720Z,24
2022-11-23T04:16:02.768Z,23.5
2022-11-23T04:17:02.777Z,23.5
2022-11-23T04:18:02.812Z,24.5
2022-11-23T04:19:02.848Z,23.4286
2022-11-23T04:20:02.871Z,22.9286
2022-11-23T04:21:02.935Z,22.7143
2022-11-23T04:22:02.943Z,24.4286
2022-11-23T04:23:02.973Z,24.2143
2022-11-23T04:24:03.009Z,24.1429
2022-11-23T04:25:03.042Z,24.7143
2022-11-23T04:26:03.090Z,24.1429
2022-11-23T04:27:03.101Z,22.1429
2022-11-23T04:28:03.120Z,23.4286
2022-11-23T04:29:03.150Z,24.4286
2022-11-23T04:30:03.187Z,23.8571
2022-11-23T04:31:03.236Z,23.9286
2022-11-23T04:32:03.250Z,23.5
2022-11-23T04:33:03.284Z,24.4286
2022-11-23T04:34:03.307Z,22.2143
2022-11-23T04:35:03.339Z,24.5
2022-11-23T04:36:03.365Z,23.5
2022-11-23T04:37:03.393Z,24.4286
2022-11-23T04:38:03.424Z,23.1429
2022-11-23T04:39:03.474Z,23.9286
2022-11-23T04:40:03.506Z,24.1429
2022-11-23T04:41:03.533Z,23.8571
2022-11-23T04:42:03.584Z,25
2022-11-23T04:43:03.589Z,24.4286
2022-11-23T04:44:03.619Z,24.2143
2022-11-23T04:45:03.649Z,25
2022-11-23T04:46:03.692Z,24.3571
2022-11-23T04:47:03.717Z,23.4286
2022-11-23T04:48:03.777Z,24.4286
2022-11-23T04:49:03.778Z,23.9286
2022-11-23T04:50:03.812Z,23.5
2022-11-23T04:51:03.857Z,25.4286
2022-11-23T04:52:03.872Z,23.7143
2022-11-23T04:53:03.897Z,25
2022-11-23T04:54:03.931Z,23.6429
2022-11-23T04:55:03.996Z,23.2143
2022-11-23T04:56:04.000Z,23.5
2022-11-23T04:57:04.033Z,22.6429
2022-11-23T04:58:04.055Z,23.9286
2022-11-23T04:59:04.094Z,23.3571
2022-11-23T05:00:04.137Z,23.8571
2022-11-23T05:01:04.212Z,22.4286
2022-11-23T05:02:04.174Z,22.7143
2022-11-23T05:03:04.208Z,22.6429
2022-11-23T05:04:04.249Z,23.1429
2022-11-23T05:05:04.284Z,24.1429
2022-11-23T05:06:04.309Z,23.7143
2022-11-23T05:07:04.378Z,23.1429
2022-11-23T05:08:04.361Z,23.7143
2022-11-23T05:09:04.386Z,23.5
2022-11-23T05:10:04.409Z,22.5
2022-11-23T05:11:04.447Z,22.7143
2022-11-23T05:12:04.478Z,21.7143
2022-11-23T05:13:04.503Z,21.2143
2022-11-23T05:14:04.532Z,21.6429
2022-11-23T05:15:04.569Z,23.1429
2022-11-23T05:16:04.624Z,22.1429
2022-11-23T05:17:04.633Z,22.4286
2022-11-23T05:18:04.667Z,23.4286
2022-11-23T05:19:04.698Z,22.6429
2022-11-23T05:20:04.720Z,22.3571
2022-11-23T05:21:04.743Z,22.5
2022-11-23T05:22:04.773Z,23
2022-11-23T05:23:04.803Z,22.2143
2022-11-23T05:24:04.842Z,22.8571
2022-11-23T05:25:04.879Z,22.5
2022-11-23T05:26:04.902Z,21.5
2022-11-23T05:27:04.933Z,22.6429
2022-11-23T05:28:30.199Z,23.9286
2022-11-23T05:29:04.987Z,23.6429
2022-11-23T05:30:05.028Z,23
2022-11-23T05:31:05.042Z,21.5
2022-11-23T05:32:05.089Z,23
2022-11-23T05:33:05.100Z,22.6429
2022-11-23T05:34:05.127Z,22.5
2022-11-23T05:35:05.176Z,22.8571
2022-11-23T05:36:05.195Z,22.7143
2022-11-23T05:37:05.220Z,22.4286
2022-11-23T05:38:05.276Z,23.5
2022-11-23T05:39:05.289Z,23.7143
2022-11-23T05:40:05.394Z,23.4286
2022-11-23T05:41:05.352Z,22.8571
2022-11-23T05:42:05.384Z,22.5
2022-11-23T05:43:05.445Z,20.8571
2022-11-23T05:44:05.457Z,21.7143
2022-11-23T05:45:11.106Z,21.2143
2022-11-23T05:46:05.533Z,21.3571
2022-11-23T05:47:05.560Z,20.5
2022-11-23T05:48:05.617Z,20.9286
2022-11-23T05:49:05.642Z,21.5
2022-11-23T05:50:05.645Z,22
2022-11-23T05:51:05.805Z,21.3571
2022-11-23T05:52:05.712Z,22.8571
2022-11-23T05:53:05.742Z,19.2143
2022-11-23T05:54:05.823Z,20.9286
2022-11-23T05:55:05.822Z,20.5
2022-11-23T05:56:05.835Z,21.3571
2022-11-23T05:57:05.860Z,20.3571
2022-11-23T05:58:05.897Z,20.9286
2022-11-23T05:59:05.952Z,22
2022-11-23T06:00:05.952Z,21.5
2022-11-23T06:01:05.984Z,22.2143
2022-11-23T06:02:06.011Z,22.2143
2022-11-23T06:03:06.040Z,21.2143
2022-11-23T06:04:06.116Z,21.2143
2022-11-23T06:05:06.126Z,21.1429
2022-11-23T06:06:06.135Z,20.6429
2022-11-23T06:07:06.300Z,21.3571
2022-11-23T06:08:06.206Z,22.3571
2022-11-23T06:09:06.241Z,20.8571
2022-11-23T06:10:06.275Z,21.3571
2022-11-23T06:11:06.304Z,20.8571
2022-11-23T06:12:06.348Z,21.5
2022-11-23T06:13:06.391Z,20.6429
2022-11-23T06:14:09.934Z,21.3571
2022-11-23T06:15:06.424Z,21.6429
2022-11-23T06:16:06.463Z,22.4286
2022-11-23T06:17:06.487Z,22.7143
2022-11-23T06:18:06.541Z,22.6429
2022-11-23T06:19:06.548Z,21.4286
2022-11-23T06:20:06.573Z,22.6429
2022-11-23T06:21:06.604Z,22
2022-11-23T06:22:06.630Z,23
2022-11-23T06:23:06.686Z,23.6429
2022-11-23T06:24:06.696Z,23.1429
2022-11-23T06:25:06.738Z,22.9286
2022-11-23T06:26:06.762Z,21.6429
2022-11-23T06:27:06.800Z,22.6429
2022-11-23T06:28:06.826Z,22
2022-11-23T06:29:06.871Z,22.4286
2022-11-23T06:30:06.888Z,23.2143
2022-11-23T06:31:06.953Z,22.8571
2022-11-23T06:32:06.947Z,21.7143
2022-11-23T06:33:06.979Z,22.5
2022-11-23T06:34:06.999Z,22.1429
2022-11-23T06:35:07.035Z,21.3571
2022-11-23T06:36:07.059Z,21.6429
2022-11-23T06:37:07.094Z,21.8571
2022-11-23T06:38:07.124Z,21.7143
2022-11-23T06:39:07.158Z,21.6429
2022-11-23T06:40:07.190Z,22.4286
2022-11-23T06:41:07.208Z,21.3571
2022-11-23T06:42:31.256Z,22.6429
2022-11-23T06:43:07.276Z,21.6429
2022-11-23T06:44:07.303Z,21.1429
2022-11-23T06:45:07.356Z,21.7143
2022-11-23T06:46:07.372Z,21.6429
2022-11-23T06:47:07.416Z,22
2022-11-23T06:48:07.434Z,21.3571
2022-11-23T06:49:07.486Z,22.1429
2022-11-23T06:50:07.500Z,22.7143
2022-11-23T06:51:07.553Z,20.8571
2022-11-23T06:52:07.571Z,23
2022-11-23T06:53:07.607Z,20.9286
2022-11-23T06:54:07.639Z,20.9286
2022-11-23T06:55:07.667Z,20.8571
2022-11-23T06:56:07.720Z,21
2022-11-23T06:57:07.723Z,21.2143
2022-11-23T06:58:07.744Z,22.7143
2022-11-23T06:59:07.774Z,21.9286
2022-11-23T07:00:07.809Z,21.6429
2022-11-23T07:01:07.967Z,21.4286
2022-11-23T07:02:07.858Z,22.5
2022-11-23T07:03:07.967Z,20.7143
2022-11-23T07:04:07.923Z,23.2143
2022-11-23T07:05:07.956Z,21.8571
2022-11-23T07:06:07.992Z,22
2022-11-23T07:07:08.132Z,22.2143
2022-11-23T07:08:08.068Z,22.6429
2022-11-23T07:09:08.090Z,21.1429
2022-11-23T07:10:08.139Z,21.7143
2022-11-23T07:11:08.164Z,22.4286
2022-11-23T07:12:08.189Z,21.4286
2022-11-23T07:13:08.222Z,22.2143
2022-11-23T07:14:08.261Z,23.2143
2022-11-23T07:15:08.293Z,23.2143
2022-11-23T07:16:08.332Z,23.2143
2022-11-23T07:17:08.347Z,22.8571
2022-11-23T07:18:08.379Z,22.2143
2022-11-23T07:19:08.419Z,22.2143
2022-11-23T07:20:08.443Z,22.7143
2022-11-23T07:21:08.493Z,23.1429
2022-11-23T07:22:08.508Z,22.2143
2022-11-23T07:23:08.550Z,22.4286
2022-11-23T07:24:08.570Z,23
2022-11-23T07:25:08.602Z,21.9286
2022-11-23T07:26:08.646Z,23.5
2022-11-23T07:27:08.662Z,22.8571
2022-11-23T07:28:08.686Z,21.7143
2022-11-23T07:29:08.719Z,21.9286
2022-11-23T07:30:08.749Z,22.7143
2022-11-23T07:31:08.801Z,22.6429
2022-11-23T07:32:08.820Z,22.3571
2022-11-23T07:33:08.853Z,22.9286
2022-11-23T07:34:08.906Z,23.5
2022-11-23T07:35:08.922Z,22.1429
2022-11-23T07:36:08.960Z,22.3571
2022-11-23T07:37:08.980Z,22.5
2022-11-23T07:38:09.008Z,22
2022-11-23T07:39:09.059Z,21.7143
2022-11-23T07:40:09.077Z,21.4286
2022-11-23T07:41:09.098Z,21.3571
2022-11-23T07:42:31.931Z,23.1429
2022-11-23T07:43:09.165Z,22.6429
2022-11-23T07:44:09.182Z,21.4286
2022-11-23T07:45:09.218Z,22
2022-11-23T07:46:09.251Z,21.3571
2022-11-23T07:47:09.275Z,22.7143
2022-11-23T07:48:09.309Z,21.8571
2022-11-23T07:49:09.351Z,23.2143
2022-11-23T07:50:09.378Z,25
2022-11-23T07:51:09.428Z,23.3571
2022-11-23T07:52:09.441Z,22.1429
2022-11-23T07:53:09.479Z,20.9286
2022-11-23T07:54:09.527Z,22
2022-11-23T07:55:09.542Z,23.1429
2022-11-23T07:56:09.559Z,21.5
2022-11-23T07:57:09.598Z,21.2143
2022-11-23T07:58:09.622Z,22.5
2022-11-23T07:59:09.663Z,21.9286
2022-11-23T08:00:09.707Z,22.3571
2022-11-23T08:01:09.729Z,20.7143
2022-11-23T08:02:09.817Z,21.6429
2022-11-23T08:03:27.371Z,20.6429
2022-11-23T08:04:09.819Z,21.2143
2022-11-23T08:05:14.017Z,20.8571
2022-11-23T08:06:09.906Z,21.2143
2022-11-23T08:07:09.984Z,21.8571
2022-11-23T08:08:09.942Z,20.8571
2022-11-23T08:09:09.974Z,21.4286
2022-11-23T08:10:10.057Z,21.2143
2022-11-23T08:11:10.053Z,21.2143
2022-11-23T08:12:10.070Z,21.2143
2022-11-23T08:13:10.097Z,20.6429
2022-11-23T08:14:10.138Z,20.1429
2022-11-23T08:15:10.163Z,21.3571
2022-11-23T08:16:10.206Z,21.2143
2022-11-23T08:17:10.235Z,21
2022-11-23T08:18:10.258Z,21.4286
2022-11-23T08:19:10.292Z,21.2143
2022-11-23T08:20:10.339Z,20.2143
2022-11-23T08:21:10.375Z,20.9286
2022-11-23T08:22:14.637Z,20.6429
2022-11-23T08:23:10.411Z,20.4286
2022-11-23T08:24:10.443Z,21.7143
2022-11-23T08:25:10.495Z,21.7143
2022-11-23T08:26:13.578Z,21.4286
2022-11-23T08:27:10.530Z,20.5
2022-11-23T08:28:10.560Z,22.7143
2022-11-23T08:29:10.594Z,21.9286
2022-11-23T08:30:10.663Z,20.1429
2022-11-23T08:31:10.665Z,21.1429
2022-11-23T08:32:10.696Z,21.6429
2022-11-23T08:33:10.733Z,21.9286
2022-11-23T08:34:10.765Z,21.3571
2022-11-23T08:35:10.793Z,20.9286
2022-11-23T08:36:10.846Z,20
2022-11-23T08:37:10.859Z,21.4286
2022-11-23T08:38:10.875Z,20.3571
2022-11-23T08:39:10.911Z,21.5
2022-11-23T08:40:10.937Z,21.6429
2022-11-23T08:41:10.964Z,19.3571
2022-11-23T08:42:10.992Z,20.4286
2022-11-23T08:43:11.030Z,19.6429
2022-11-23T08:44:11.061Z,18.9286
2022-11-23T08:45:11.096Z,18.5
2022-11-23T08:46:11.535Z,18.3571
2022-11-23T08:47:11.148Z,19.4286
2022-11-23T08:48:11.180Z,19
2022-11-23T08:49:11.209Z,19
2022-11-23T08:50:11.258Z,18.3571
2022-11-23T08:51:11.272Z,19.4286
2022-11-23T08:52:11.327Z,18.1429
2022-11-23T08:53:11.328Z,18.7143
2022-11-23T08:54:11.362Z,17.7143
2022-11-23T08:55:11.397Z,18.6429
2022-11-23T08:56:11.425Z,18.5
2022-11-23T08:57:11.479Z,18.3571
2022-11-23T08:58:13.483Z,17.9286
2022-11-23T08:59:11.529Z,17.2143
2022-11-23T09:00:11.556Z,18.9286
2022-11-23T09:01:11.702Z,17.8571
2022-11-23T09:02:11.618Z,17.9286
2022-11-23T09:03:11.653Z,18
2022-11-23T09:04:14.061Z,18
2022-11-23T09:05:11.708Z,18.7143
2022-11-23T09:06:11.736Z,18.3571
2022-11-23T09:07:11.838Z,17.9286
2022-11-23T09:08:11.791Z,18.8571
2022-11-23T09:09:11.827Z,18.1429
2022-11-23T09:10:16.706Z,17.6429
2022-11-23T09:11:11.900Z,17.6429
2022-11-23T09:12:11.925Z,18.5
2022-11-23T09:13:11.956Z,17.8571
2022-11-23T09:14:11.996Z,17.8571
2022-11-23T09:15:12.020Z,16.4286
2022-11-23T09:16:12.076Z,18.2143
2022-11-23T09:17:12.083Z,17.3571
2022-11-23T09:18:12.111Z,17.8571
2022-11-23T09:19:12.139Z,17
2022-11-23T09:20:12.195Z,17
2022-11-23T09:21:12.206Z,16.9286
2022-11-23T09:22:12.348Z,19.4286
2022-11-23T09:23:14.393Z,17.7143
2022-11-23T09:24:12.410Z,17.2143
2022-11-23T09:25:12.337Z,18.1429
2022-11-23T09:26:12.387Z,17.9286
2022-11-23T09:27:12.439Z,16.6429
2022-11-23T09:28:12.427Z,16.4286
2022-11-23T09:29:12.469Z,16.9286
2022-11-23T09:30:12.496Z,16.6429
2022-11-23T09:31:12.531Z,18.2143
2022-11-23T09:32:12.587Z,17.4286
2022-11-23T09:33:12.588Z,16.9286
2022-11-23T09:34:12.628Z,16.3571
2022-11-23T09:35:12.650Z,16.2143
2022-11-23T09:36:12.676Z,16.5
2022-11-23T09:37:12.701Z,16.4286
2022-11-23T09:38:12.739Z,17.3571
2022-11-23T09:39:12.768Z,16.6429
2022-11-23T09:40:12.805Z,16.1429
2022-11-23T09:41:12.835Z,17.3571
2022-11-23T09:42:12.874Z,16.9286
2022-11-23T09:43:12.910Z,17
2022-11-23T09:44:12.934Z,16.5
2022-11-23T09:45:12.967Z,15.5
2022-11-23T09:46:12.995Z,15.6429
2022-11-23T09:47:13.033Z,16.3571
2022-11-23T09:48:13.055Z,14.8571
2022-11-23T09:49:13.088Z,16.3571
2022-11-23T09:50:13.144Z,15.6429
2022-11-23T09:51:13.165Z,15.8571
2022-11-23T09:52:13.180Z,15.1429
2022-11-23T09:53:13.207Z,15.4286
2022-11-23T09:54:13.256Z,15.1429
2022-11-23T09:55:13.283Z,15.3571
2022-11-23T09:56:13.338Z,15.6429
2022-11-23T09:57:13.356Z,14.8571
2022-11-23T09:58:13.396Z,15.4286
2022-11-23T09:59:13.421Z,15.4286
2022-11-23T10:00:13.457Z,14.6429
2022-11-23T10:01:13.573Z,16.1429
2022-11-23T10:02:13.512Z,15.6429
2022-11-23T10:03:13.554Z,16.3571
2022-11-23T10:04:13.583Z,15.3571
2022-11-23T10:05:13.604Z,15
2022-11-23T10:06:13.641Z,15.3571
2022-11-23T10:07:13.717Z,15
2022-11-23T10:08:13.710Z,15.4286
2022-11-23T10:09:13.735Z,16
2022-11-23T10:10:13.767Z,14.7143
2022-11-23T10:11:13.797Z,15
2022-11-23T10:12:13.833Z,14.5
2022-11-23T10:13:13.865Z,14.9286
2022-11-23T10:14:13.915Z,16.1429
2022-11-23T10:15:13.926Z,15
2022-11-23T10:16:13.951Z,15.1429
2022-11-23T10:17:13.983Z,15.2143
2022-11-23T10:18:14.030Z,14.9286
2022-11-23T10:19:14.046Z,14.8571
2022-11-23T10:20:14.079Z,16.1429
2022-11-23T10:21:14.111Z,14.6429
2022-11-23T10:22:14.135Z,14.4286
2022-11-23T10:23:14.167Z,14.6429
2022-11-23T10:24:14.199Z,14.3571
2022-11-23T10:25:14.223Z,14.3571
2022-11-23T10:26:14.243Z,14.2143
2022-11-23T10:27:14.279Z,14.5
2022-11-23T10:28:14.319Z,13.6429
2022-11-23T10:29:14.352Z,14.7143
2022-11-23T10:30:14.369Z,14.1429
2022-11-23T10:31:14.408Z,13.7143
2022-11-23T10:32:14.430Z,14
2022-11-23T10:33:14.465Z,14.1429
2022-11-23T10:34:14.503Z,14
2022-11-23T10:35:14.520Z,13.9286
2022-11-23T10:36:14.565Z,14.4286
2022-11-23T10:37:14.590Z,13.8571
2022-11-23T10:38:18.779Z,14
2022-11-23T10:39:14.652Z,14.8571
2022-11-23T10:40:14.677Z,14
2022-11-23T10:41:14.716Z,13.8571
2022-11-23T10:42:14.743Z,14.5
2022-11-23T10:43:14.781Z,14.2143
2022-11-23T10:44:14.816Z,14.1429
2022-11-23T10:45:14.839Z,14.3571
2022-11-23T10:46:14.862Z,14.4286
2022-11-23T10:47:14.897Z,14.1429
2022-11-23T10:48:14.923Z,13
2022-11-23T10:49:14.954Z,14.2143
2022-11-23T10:50:14.990Z,14
2022-11-23T10:51:15.012Z,15.2143
2022-11-23T10:52:15.048Z,13.3571
2022-11-23T10:53:15.073Z,14
2022-11-23T10:54:15.111Z,13.9286
2022-11-23T10:55:15.154Z,14.7143
2022-11-23T10:56:15.174Z,14.5
2022-11-23T10:57:15.212Z,14.8571
2022-11-23T10:58:15.248Z,15
2022-11-23T10:59:15.280Z,15.3571
2022-11-23T11:00:15.316Z,15
2022-11-23T11:01:15.412Z,14.1429
2022-11-23T11:02:15.386Z,14.5
2022-11-23T11:03:15.397Z,15.4286
2022-11-23T11:04:15.423Z,14.4286
2022-11-23T11:05:15.466Z,14.1429
2022-11-23T11:06:15.486Z,15
2022-11-23T11:07:15.612Z,14.4286
2022-11-23T11:08:15.549Z,14
2022-11-23T11:09:15.579Z,14.2143
2022-11-23T11:10:15.658Z,14.5
2022-11-23T11:11:15.637Z,13.7143
2022-11-23T11:12:15.701Z,14.2143
2022-11-23T11:13:15.709Z,14
2022-11-23T11:14:15.746Z,14.9286
2022-11-23T11:15:15.789Z,14.5
2022-11-23T11:16:15.798Z,14.2143
2022-11-23T11:17:15.826Z,13.6429
2022-11-23T11:18:15.866Z,14.9286
2022-11-23T11:19:15.885Z,13.7143
2022-11-23T11:20:15.926Z,14.2143
2022-11-23T11:21:15.957Z,14.4286
2022-11-23T11:22:15.986Z,14.4286
2022-11-23T11:23:16.019Z,13.9286
2022-11-23T11:24:16.052Z,13.7143
2022-11-23T11:25:16.068Z,14.5
2022-11-23T11:26:16.099Z,14.4286
2022-11-23T11:27:16.128Z,14.3571
2022-11-23T11:28:16.156Z,14.6429
2022-11-23T11:29:16.193Z,14.1429
2022-11-23T11:30:16.229Z,13.6429
2022-11-23T11:31:16.256Z,13.7143
2022-11-23T11:32:16.282Z,13
2022-11-23T11:33:16.322Z,14.7143
2022-11-23T11:34:16.355Z,13.4286
2022-11-23T11:35:20.809Z,14.1429
2022-11-23T11:36:16.402Z,14.8571
2022-11-23T11:37:16.431Z,14.3571
2022-11-23T11:38:16.461Z,14.3571
2022-11-23T11:39:18.658Z,14
2022-11-23T11:40:16.521Z,14.5
2022-11-23T11:41:16.558Z,14.4286
2022-11-23T11:42:16.608Z,13.8571
2022-11-23T11:43:16.619Z,13.7143
2022-11-23T11:44:16.648Z,13.6429
2022-11-23T11:45:16.678Z,14.4286
2022-11-23T11:46:29.681Z,13.9286
2022-11-23T11:47:16.743Z,13
2022-11-23T11:48:16.774Z,13.5
2022-11-23T11:49:16.827Z,13.7143
2022-11-23T11:50:16.839Z,14.3571
2022-11-23T11:51:16.904Z,14.6429
2022-11-23T11:52:16.899Z,14.4286
2022-11-23T11:53:16.925Z,13.5
2022-11-23T11:54:17.004Z,14.1429
2022-11-23T11:55:16.987Z,13.4286
2022-11-23T11:56:17.011Z,15.3571
2022-11-23T11:57:17.043Z,14
2022-11-23T11:58:17.098Z,14.6429
2022-11-23T11:59:17.117Z,14
2022-11-23T12:00:17.151Z,14.7143
2022-11-23T12:01:17.203Z,14.7143
2022-11-23T12:02:17.216Z,14.3571
2022-11-23T12:03:17.271Z,14.8571
2022-11-23T12:04:17.289Z,14.4286
2022-11-23T12:05:17.319Z,14.2143
2022-11-23T12:06:17.357Z,14.6429
2022-11-23T12:07:17.473Z,13.6429
2022-11-23T12:08:17.422Z,15
2022-11-23T12:09:17.444Z,14
2022-11-23T12:10:17.485Z,14.1429
2022-11-23T12:11:17.520Z,14.1429
2022-11-23T12:12:17.547Z,14.8571
2022-11-23T12:13:17.571Z,14.2143
2022-11-23T12:14:17.604Z,14.6429
2022-11-23T12:15:47.341Z,13.5
2022-11-23T12:16:17.673Z,14.4286
2022-11-23T12:17:32.354Z,13.8571
2022-11-23T12:18:17.745Z,13.7143
2022-11-23T12:19:17.780Z,13.9286
2022-11-23T12:20:17.811Z,14.9286
2022-11-23T12:21:17.916Z,13.2143
2022-11-23T12:22:17.954Z,13.9286
2022-11-23T12:23:17.917Z,13.3571
2022-11-23T12:24:17.950Z,14.3571
2022-11-23T12:25:17.978Z,13.5